< < Back
Terminal Aerodrome Forecast


Current Version              Previous Versions:   1  2  3  4  5  6  7  8  9  

Terminal Aerodrome Forecast

730
FTUS42 KCHS 251700
TAFCHS
TAF
KCHS 251722Z 2518/2618 33006KT P6SM SKC
     FM252300 27003KT P6SM SKC=



Latest METAR

959
SAUS80 KWBC 251700 RRC
MTRCHS
METAR KCHS 251656Z 31007KT 10SM CLR 23/09 A3001 RMK AO2 SLP160
T02330089


USA.gov is the U.S. government's official web portal to all federal, state and local government web resources and services.